Time;durP1;ratioP1;P1;durP2;ratioP2;P2;SDS_P1;SDS_P2;PMS_P1;PMS_P2;Temp;Humidity;BMP_temperature;BMP_pressure;BME280_temperature;BME280_humidity;BME280_pressure;Samples;Min_cycle;Max_cycle;Signal;HPM_P1;HPM_P2
2023/07/14 00:33:00;;;;;;;14.02;7.18;;;27.30;96.70;;;;;;4926551;29;20055;-80
2023/07/14 00:35:30;;;;;;;13.80;6.63;;;27.30;96.70;;;;;;4913963;29;20578;-81
2023/07/14 00:37:58;;;;;;;11.90;6.25;;;27.20;96.70;;;;;;4924405;29;20476;-81
2023/07/14 00:40:32;;;;;;;11.85;5.88;;;27.20;96.70;;;;;;4922542;29;20514;-81
2023/07/14 00:43:00;;;;;;;13.95;6.32;;;27.30;96.70;;;;;;4929406;29;20051;-81
2023/07/14 00:45:30;;;;;;;12.00;5.88;;;27.30;96.70;;;;;;4926266;29;20505;-81
2023/07/14 00:48:04;;;;;;;14.18;6.78;;;27.20;96.70;;;;;;4909931;29;20059;-81
2023/07/14 00:51:02;;;;;;;10.40;5.65;;;27.30;96.70;;;;;;4934085;29;20035;-81
2023/07/14 00:53:33;;;;;;;14.07;6.10;;;27.30;96.70;;;;;;4922562;29;20158;-80
2023/07/14 02:12:05;;;;;;;11.73;6.10;;;26.70;96.70;;;;;;4904972;29;20399;-81
2023/07/14 02:14:40;;;;;;;15.82;7.78;;;26.70;96.70;;;;;;4920324;29;20434;-80
2023/07/14 02:17:18;;;;;;;15.23;6.47;;;26.70;96.70;;;;;;4895188;29;20058;-81
2023/07/14 05:04:14;;;;;;;14.13;8.00;;;26.20;96.70;;;;;;4919040;29;20059;-81
2023/07/14 05:06:42;;;;;;;12.20;8.00;;;26.20;96.70;;;;;;4918416;29;20059;-81
2023/07/14 05:09:11;;;;;;;17.15;8.27;;;26.30;96.70;;;;;;4915011;29;20569;-81
2023/07/14 05:11:40;;;;;;;15.13;7.90;;;26.30;96.70;;;;;;4928176;29;20368;-81
2023/07/14 05:14:08;;;;;;;14.13;8.27;;;26.30;96.70;;;;;;4927763;29;20091;-80
2023/07/14 05:16:37;;;;;;;13.02;7.88;;;26.30;96.70;;;;;;4927125;29;20074;-81
2023/07/14 05:19:05;;;;;;;14.02;7.57;;;26.40;96.70;;;;;;4899299;29;20095;-82
2023/07/14 05:21:35;;;;;;;15.40;7.63;;;26.40;96.70;;;;;;4924871;29;20143;-81
2023/07/14 05:24:04;;;;;;;15.85;7.47;;;26.40;96.70;;;;;;4904703;29;20147;-81
2023/07/14 05:26:32;;;;;;;14.57;7.10;;;26.30;96.70;;;;;;4918726;29;20062;-81
2023/07/14 05:29:02;;;;;;;13.88;7.68;;;26.40;96.70;;;;;;4905369;29;20047;-81
2023/07/14 05:31:32;;;;;;;12.90;7.03;;;26.40;96.70;;;;;;4914126;29;20056;-82
2023/07/14 05:34:00;;;;;;;15.43;6.80;;;26.50;96.70;;;;;;4921057;29;20143;-81
2023/07/14 05:36:28;;;;;;;13.93;6.70;;;26.60;96.70;;;;;;4926166;29;20126;-81
2023/07/14 05:38:58;;;;;;;16.75;8.38;;;26.70;96.70;;;;;;4914314;29;20548;-81
2023/07/14 05:41:27;;;;;;;13.80;6.60;;;26.70;96.70;;;;;;4931457;29;20134;-79
2023/07/14 05:43:55;;;;;;;16.05;7.43;;;26.70;96.70;;;;;;4931121;29;20070;-81
2023/07/14 05:46:23;;;;;;;17.55;6.72;;;26.70;96.70;;;;;;4931360;29;20047;-81
2023/07/14 05:48:55;;;;;;;16.98;7.00;;;26.80;96.70;;;;;;4915703;29;20068;-81
2023/07/14 05:51:23;;;;;;;13.55;7.47;;;26.70;96.70;;;;;;4914189;29;20054;-82
2023/07/14 05:53:51;;;;;;;16.35;7.35;;;26.70;96.70;;;;;;4918957;29;20058;-81
2023/07/14 05:56:21;;;;;;;12.13;6.68;;;26.60;96.70;;;;;;4922921;29;20044;-81
2023/07/14 05:58:49;;;;;;;12.70;6.85;;;26.60;96.70;;;;;;4899145;29;20078;-81
2023/07/14 06:01:18;;;;;;;14.18;6.82;;;26.70;96.70;;;;;;4918735;29;20513;-81
2023/07/14 06:03:46;;;;;;;12.82;7.82;;;26.80;96.70;;;;;;4930904;29;20055;-82
2023/07/14 06:06:14;;;;;;;12.85;7.53;;;26.80;96.70;;;;;;4923875;29;20043;-81
2023/07/14 06:08:45;;;;;;;15.63;7.57;;;26.70;96.70;;;;;;4929249;29;20048;-82
2023/07/14 06:11:13;;;;;;;14.82;7.30;;;26.90;96.70;;;;;;4921256;29;20055;-81
2023/07/14 06:13:43;;;;;;;15.13;7.43;;;27.00;96.70;;;;;;4923482;29;20066;-81
2023/07/14 06:16:11;;;;;;;18.48;7.82;;;27.00;96.70;;;;;;4925295;29;20632;-81
2023/07/14 06:18:40;;;;;;;16.50;7.75;;;27.10;96.70;;;;;;4930936;29;20078;-80
2023/07/14 06:21:10;;;;;;;13.98;7.57;;;27.10;96.70;;;;;;4921027;29;20050;-81
2023/07/14 06:23:39;;;;;;;18.00;7.05;;;27.20;96.70;;;;;;4927770;29;20142;-81
2023/07/14 06:26:07;;;;;;;12.60;8.27;;;27.30;96.70;;;;;;4913096;29;20051;-81
2023/07/14 06:28:35;;;;;;;15.50;7.70;;;27.30;96.70;;;;;;4920449;29;20051;-81
2023/07/14 06:31:06;;;;;;;15.82;8.02;;;27.30;96.70;;;;;;4913616;29;20507;-81
2023/07/14 06:33:35;;;;;;;16.38;7.82;;;27.30;96.70;;;;;;4926317;29;20519;-81
2023/07/14 06:36:03;;;;;;;12.68;6.97;;;27.30;96.70;;;;;;4921145;29;20511;-81
2023/07/14 06:38:33;;;;;;;11.52;7.22;;;27.30;96.70;;;;;;4929859;29;20130;-82
2023/07/14 06:41:03;;;;;;;19.60;8.15;;;27.40;96.70;;;;;;4930365;29;20131;-82
2023/07/14 06:43:33;;;;;;;16.08;7.22;;;27.40;96.70;;;;;;4913815;29;20048;-82
2023/07/14 06:46:01;;;;;;;10.93;6.22;;;27.50;96.70;;;;;;4899702;29;20510;-81
2023/07/14 06:48:31;;;;;;;15.45;7.13;;;27.50;96.70;;;;;;4901467;29;20075;-82
2023/07/14 06:50:59;;;;;;;18.15;7.15;;;27.50;96.70;;;;;;4928663;29;20139;-82
2023/07/14 06:53:28;;;;;;;13.23;6.60;;;27.60;96.70;;;;;;4931794;29;20155;-83
2023/07/14 06:55:56;;;;;;;16.33;7.15;;;27.60;96.70;;;;;;4923817;29;20043;-85
2023/07/14 06:58:25;;;;;;;13.98;7.63;;;27.60;96.70;;;;;;4912322;29;20147;-83
2023/07/14 07:00:56;;;;;;;14.82;7.70;;;27.60;96.70;;;;;;4915040;29;20055;-83
2023/07/14 07:03:25;;;;;;;13.45;6.85;;;27.70;96.70;;;;;;4913676;29;20065;-84
2023/07/14 07:05:56;;;;;;;10.32;6.45;;;27.70;96.70;;;;;;4914286;29;20047;-83
2023/07/14 07:08:25;;;;;;;15.35;6.78;;;27.80;96.70;;;;;;4932462;29;20082;-84
2023/07/14 07:10:53;;;;;;;15.50;7.78;;;27.80;96.70;;;;;;4918268;29;20047;-84
2023/07/14 07:13:22;;;;;;;14.45;7.22;;;27.80;96.70;;;;;;4914891;29;20040;-84
2023/07/14 07:15:50;;;;;;;16.90;8.75;;;27.90;96.70;;;;;;4913723;29;20138;-84
2023/07/14 07:18:24;;;;;;;15.60;7.35;;;27.90;96.70;;;;;;4908405;29;20845;-82
2023/07/14 07:20:54;;;;;;;16.63;7.45;;;27.90;96.70;;;;;;4909499;29;20074;-83
2023/07/14 07:23:23;;;;;;;11.38;7.22;;;27.90;96.70;;;;;;4914645;29;20138;-83
2023/07/14 07:25:53;;;;;;;16.13;6.53;;;28.00;96.70;;;;;;4921147;29;20058;-81
2023/07/14 07:28:22;;;;;;;11.85;6.50;;;28.00;96.70;;;;;;4912272;29;20130;-82
2023/07/14 07:30:50;;;;;;;16.55;6.78;;;28.10;96.70;;;;;;4929303;29;20130;-82
2023/07/14 07:33:19;;;;;;;18.45;7.53;;;28.30;96.70;;;;;;4920872;29;20142;-83
2023/07/14 07:35:47;;;;;;;21.08;8.02;;;28.30;96.70;;;;;;4925093;29;20046;-83
2023/07/14 07:38:20;;;;;;;16.00;8.27;;;28.20;96.70;;;;;;4928186;29;20048;-83
2023/07/14 07:40:48;;;;;;;14.13;7.00;;;28.20;96.70;;;;;;4903176;29;20146;-83
2023/07/14 07:43:17;;;;;;;14.77;6.40;;;28.30;96.70;;;;;;4897136;29;20539;-83
2023/07/14 07:45:49;;;;;;;16.75;7.13;;;28.40;96.70;;;;;;4929185;29;20082;-84
2023/07/14 07:48:17;;;;;;;17.77;6.63;;;28.40;96.70;;;;;;4929974;29;20052;-83
2023/07/14 07:50:46;;;;;;;17.50;6.88;;;28.40;96.70;;;;;;4929374;29;20039;-83
2023/07/14 07:53:14;;;;;;;16.52;7.05;;;28.60;96.70;;;;;;4913687;29;20051;-84
2023/07/14 07:55:52;;;;;;;16.00;6.57;;;28.70;96.70;;;;;;4913205;29;20040;-84
2023/07/14 07:58:24;;;;;;;13.90;5.95;;;28.80;96.70;;;;;;4929572;29;20100;-84
2023/07/14 08:00:53;;;;;;;18.88;6.93;;;28.80;96.70;;;;;;4929919;29;20526;-84
2023/07/14 08:03:22;;;;;;;15.38;7.10;;;28.80;96.70;;;;;;4897369;29;20059;-80
2023/07/14 08:05:51;;;;;;;14.98;7.22;;;28.80;96.70;;;;;;4918797;29;20055;-83
2023/07/14 08:08:19;;;;;;;17.90;6.40;;;28.80;96.70;;;;;;4914390;29;20040;-81
2023/07/14 08:10:49;;;;;;;17.13;7.10;;;28.90;96.70;;;;;;4922493;29;20063;-81
2023/07/14 08:13:17;;;;;;;16.05;6.60;;;29.00;96.70;;;;;;4910793;29;20050;-84
2023/07/14 08:15:46;;;;;;;15.43;7.00;;;29.00;96.70;;;;;;4929207;29;20107;-82
2023/07/14 08:18:16;;;;;;;11.45;6.60;;;29.00;96.70;;;;;;4930251;29;20059;-83
2023/07/14 08:20:44;;;;;;;16.75;6.75;;;29.20;96.70;;;;;;4927033;29;20036;-83
2023/07/14 08:23:15;;;;;;;15.15;6.95;;;29.30;96.70;;;;;;4929619;29;20055;-82
2023/07/14 08:25:43;;;;;;;19.35;7.47;;;29.30;96.70;;;;;;4920905;29;20062;-83
2023/07/14 08:28:14;;;;;;;12.48;6.38;;;29.40;96.70;;;;;;4917105;29;20095;-82
2023/07/14 08:30:46;;;;;;;15.02;6.72;;;29.50;96.70;;;;;;4910628;29;20505;-82
2023/07/14 08:33:14;;;;;;;16.95;6.60;;;29.60;96.70;;;;;;4912582;29;20056;-81
2023/07/14 08:35:43;;;;;;;26.23;7.28;;;29.70;96.70;;;;;;4916086;29;20481;-82
2023/07/14 08:38:11;;;;;;;17.13;6.80;;;29.80;96.70;;;;;;4915700;29;20304;-83
2023/07/14 08:40:48;;;;;;;16.48;6.32;;;29.80;96.70;;;;;;4912488;29;20050;-84
2023/07/14 08:43:27;;;;;;;15.00;6.78;;;29.80;96.70;;;;;;4921430;29;20082;-83
2023/07/14 08:46:03;;;;;;;14.73;6.70;;;29.80;96.70;;;;;;4919261;29;20059;-82
2023/07/14 08:48:37;;;;;;;15.63;6.57;;;29.90;96.70;;;;;;4919191;29;20115;-85
2023/07/14 08:51:17;;;;;;;12.27;6.47;;;30.00;96.70;;;;;;4913564;29;20050;-84
2023/07/14 08:53:50;;;;;;;16.23;6.85;;;30.00;96.70;;;;;;4930301;29;20055;-84
2023/07/14 08:56:20;;;;;;;15.65;6.53;;;30.10;96.70;;;;;;4930883;29;20044;-84
2023/07/14 08:58:54;;;;;;;13.40;6.18;;;30.20;96.70;;;;;;4917664;29;20051;-84
2023/07/14 09:01:35;;;;;;;13.32;5.70;;;30.30;96.70;;;;;;4925179;29;20048;-85
2023/07/14 09:04:09;;;;;;;15.10;6.20;;;30.40;96.70;;;;;;4933391;29;20063;-83
2023/07/14 09:06:39;;;;;;;;;;;30.50;96.70;;;;;;4933116;28;20134;-84
2023/07/14 09:09:16;;;;;;;12.85;5.70;;;30.60;96.70;;;;;;4924539;29;20485;-83
2023/07/14 09:11:58;;;;;;;14.68;6.20;;;30.60;96.70;;;;;;4916639;29;20044;-83
2023/07/14 09:14:51;;;;;;;12.05;6.25;;;30.70;96.70;;;;;;4919108;29;20047;-85
2023/07/14 09:17:29;;;;;;;15.23;6.25;;;30.70;96.70;;;;;;4925764;29;20762;-84
2023/07/14 09:20:26;;;;;;;15.50;6.32;;;30.60;96.70;;;;;;4927395;29;20382;-82
2023/07/14 09:23:02;;;;;;;15.23;6.15;;;30.50;96.70;;;;;;4924476;29;20130;-84
2023/07/14 09:25:32;;;;;;;;;;;30.40;96.70;;;;;;4933268;29;20083;-84
2023/07/14 09:28:01;;;;;;;14.85;6.88;;;30.50;96.70;;;;;;4917424;29;20007;-84
2023/07/14 09:30:33;;;;;;;11.70;5.65;;;30.50;96.70;;;;;;4916049;29;20052;-83
2023/07/14 09:33:03;;;;;;;16.02;6.82;;;30.60;96.70;;;;;;4932437;29;20052;-83
2023/07/14 09:35:31;;;;;;;14.25;6.68;;;30.60;96.70;;;;;;4932278;29;20534;-82
2023/07/14 09:38:05;;;;;;;12.20;6.32;;;30.70;96.70;;;;;;4916071;29;20048;-83
2023/07/14 09:40:36;;;;;;;14.63;6.15;;;30.80;96.70;;;;;;4915533;29;20502;-83
2023/07/14 09:43:06;;;;;;;7.97;5.60;;;31.00;96.70;;;;;;4932045;29;20808;-82
2023/07/14 09:45:38;;;;;;;17.13;6.70;;;31.20;96.70;;;;;;4929479;29;20147;-82
2023/07/14 09:48:15;;;;;;;15.40;5.65;;;31.20;96.70;;;;;;4915496;29;20044;-81
2023/07/14 09:50:54;;;;;;;15.88;6.35;;;31.30;96.70;;;;;;4930337;29;20130;-82
2023/07/14 09:53:22;;;;;;;11.43;5.28;;;31.30;96.70;;;;;;4916634;29;20075;-82
2023/07/14 09:55:53;;;;;;;11.77;5.20;;;31.20;96.70;;;;;;4931457;29;20880;-80
2023/07/14 09:58:23;;;;;;;10.02;5.20;;;31.20;96.70;;;;;;4931175;29;20075;-81
2023/07/14 10:00:55;;;;;;;12.38;5.68;;;31.30;96.70;;;;;;4922050;29;20040;-80
2023/07/14 10:03:30;;;;;;;10.60;5.03;;;31.40;96.70;;;;;;4921204;29;20152;-79
2023/07/14 10:06:16;;;;;;;10.27;5.50;;;31.50;96.70;;;;;;4908566;29;20138;-80
2023/07/14 10:08:48;;;;;;;12.65;5.82;;;31.60;96.70;;;;;;4919490;29;20058;-81
2023/07/14 10:11:22;;;;;;;11.07;5.53;;;31.60;96.70;;;;;;4923809;29;20055;-81
2023/07/14 10:13:54;;;;;;;14.77;5.85;;;31.70;96.70;;;;;;4924729;29;20103;-80
2023/07/14 10:16:25;;;;;;;11.65;6.07;;;31.70;96.70;;;;;;4931813;29;20048;-80
2023/07/14 10:18:56;;;;;;;10.75;5.55;;;31.60;96.70;;;;;;4929520;29;20051;-79
2023/07/14 10:21:27;;;;;;;11.75;5.88;;;31.60;96.70;;;;;;4896448;29;20409;-80
2023/07/14 10:24:00;;;;;;;9.85;5.93;;;31.80;96.70;;;;;;4904632;29;20414;-78
2023/07/14 10:26:30;;;;;;;13.85;5.53;;;31.90;96.70;;;;;;4926239;29;20051;-80
2023/07/14 10:28:59;;;;;;;12.38;5.38;;;32.20;96.70;;;;;;4923875;29;20562;-80
2023/07/14 10:31:37;;;;;;;13.10;5.97;;;32.20;96.70;;;;;;4929390;29;20103;-80
2023/07/14 10:34:44;;;;;;;9.73;5.20;;;32.20;96.70;;;;;;4929204;29;20134;-78
2023/07/14 10:37:21;;;;;;;10.95;4.88;;;32.20;96.70;;;;;;4899597;29;20062;-80
2023/07/14 10:39:56;;;;;;;7.93;4.07;;;32.40;96.70;;;;;;4926880;29;20580;-80
2023/07/14 10:42:29;;;;;;;10.75;4.75;;;32.60;96.70;;;;;;4908020;29;20518;-79
2023/07/14 10:44:58;;;;;;;9.70;4.72;;;32.70;96.70;;;;;;4903061;29;20087;-80
2023/07/14 10:47:33;;;;;;;10.35;4.68;;;32.80;96.70;;;;;;4930095;29;20638;-81
2023/07/14 10:50:11;;;;;;;9.10;4.35;;;32.80;96.70;;;;;;4913089;29;20409;-82
2023/07/14 10:52:43;;;;;;;10.02;4.35;;;33.00;96.70;;;;;;4926405;29;20178;-82
2023/07/14 10:55:20;;;;;;;10.27;4.65;;;33.10;96.70;;;;;;4918047;29;20209;-81
2023/07/14 10:57:56;;;;;;;10.05;4.88;;;33.20;96.70;;;;;;4930305;29;20046;-81
2023/07/14 11:00:33;;;;;;;13.77;5.35;;;33.30;96.70;;;;;;4926981;29;20487;-81
2023/07/14 11:03:24;;;;;;;11.95;4.95;;;33.30;96.70;;;;;;4899446;29;20147;-81
2023/07/14 11:05:58;;;;;;;19.10;5.97;;;33.30;96.70;;;;;;4911299;29;20122;-80
2023/07/14 11:08:29;;;;;;;11.73;4.80;;;33.40;96.70;;;;;;4918715;29;20447;-80
2023/07/14 11:11:04;;;;;;;11.02;4.78;;;33.50;96.70;;;;;;4928022;29;20067;-81
2023/07/14 11:13:43;;;;;;;10.38;5.53;;;33.70;96.70;;;;;;4926371;29;20050;-81
2023/07/14 11:16:16;;;;;;;12.32;5.55;;;33.90;96.70;;;;;;4925335;29;20719;-81
2023/07/14 11:18:54;;;;;;;12.20;5.20;;;34.10;96.70;;;;;;4926393;29;20047;-81
2023/07/14 11:21:35;;;;;;;11.30;5.05;;;34.10;96.70;;;;;;4910884;29;20047;-80
2023/07/14 11:24:21;;;;;;;9.55;4.93;;;34.20;96.70;;;;;;4912564;29;20052;-80
2023/07/14 11:27:13;;;;;;;12.15;4.68;;;34.30;96.70;;;;;;4906148;29;20056;-81
2023/07/14 11:29:51;;;;;;;13.85;4.68;;;34.30;96.70;;;;;;4913812;29;20047;-80
2023/07/14 11:32:24;;;;;;;8.80;4.20;;;34.30;96.70;;;;;;4918487;29;20553;-81
2023/07/14 11:35:01;;;;;;;7.80;4.70;;;34.30;96.70;;;;;;4928506;29;20054;-81
2023/07/14 11:37:42;;;;;;;9.10;4.22;;;34.20;96.70;;;;;;4933824;29;20054;-80
2023/07/14 11:40:19;;;;;;;8.52;4.40;;;34.20;96.70;;;;;;4910556;29;20084;-82
2023/07/14 11:42:55;;;;;;;9.43;4.75;;;34.20;96.70;;;;;;4928542;29;20111;-81
2023/07/14 11:45:26;;;;;;;10.80;4.37;;;34.30;96.70;;;;;;4908863;29;20067;-82
2023/07/14 11:47:57;;;;;;;10.43;4.18;;;34.30;96.70;;;;;;4922045;29;20735;-83
2023/07/14 11:50:29;;;;;;;11.55;4.70;;;34.50;96.70;;;;;;4911475;29;20126;-81
2023/07/14 11:53:18;;;;;;;10.48;5.15;;;34.60;96.70;;;;;;4927909;29;20043;-82
2023/07/14 11:55:48;;;;;;;9.95;4.80;;;34.50;96.70;;;;;;4914038;29;20520;-84
2023/07/14 11:58:24;;;;;;;14.77;4.80;;;34.30;96.70;;;;;;4914526;29;20060;-84
2023/07/14 12:00:58;;;;;;;10.13;4.55;;;34.30;96.70;;;;;;4913801;29;20557;-85
2023/07/14 12:03:29;;;;;;;11.60;4.13;;;34.60;96.70;;;;;;4916704;29;20060;-85
2023/07/14 12:06:43;;;;;;;8.27;4.15;;;34.60;96.70;;;;;;4931393;29;20132;-83
2023/07/14 12:09:13;;;;;;;10.43;4.40;;;34.80;96.70;;;;;;4923447;29;20106;-84
2023/07/14 12:11:51;;;;;;;8.38;4.75;;;35.10;96.70;;;;;;4914391;29;20528;-84
2023/07/14 12:14:31;;;;;;;10.65;4.00;;;34.90;96.70;;;;;;4907656;29;20060;-84
2023/07/14 12:17:00;;;;;;;5.78;3.60;;;35.00;96.70;;;;;;4930987;29;20047;-85
2023/07/14 12:19:33;;;;;;;7.80;4.15;;;34.90;96.70;;;;;;4915929;29;20054;-84
2023/07/14 12:22:07;;;;;;;11.95;4.65;;;34.90;96.70;;;;;;4920299;29;20051;-84
2023/07/14 12:24:39;;;;;;;7.05;4.25;;;34.80;96.70;;;;;;4898311;29;20071;-84
2023/07/14 12:27:30;;;;;;;9.00;4.13;;;34.90;96.70;;;;;;4920444;29;20593;-84
2023/07/14 12:30:14;;;;;;;9.77;4.28;;;35.10;96.70;;;;;;4896285;29;20072;-83
2023/07/14 12:32:42;;;;;;;8.20;4.13;;;35.10;96.70;;;;;;4913824;29;20044;-84
2023/07/14 12:35:17;;;;;;;11.90;4.18;;;35.20;96.70;;;;;;4905492;29;20047;-84
2023/07/14 12:37:48;;;;;;;9.10;4.15;;;35.30;96.70;;;;;;4913759;29;20079;-84
2023/07/14 12:40:19;;;;;;;8.30;3.90;;;35.30;96.70;;;;;;4913275;29;20036;-84
2023/07/14 12:42:50;;;;;;;6.78;4.10;;;35.30;96.70;;;;;;4930669;29;20048;-84
2023/07/14 12:45:20;;;;;;;7.82;4.38;;;35.30;96.70;;;;;;4902454;29;20062;-83
2023/07/14 12:47:54;;;;;;;9.30;4.30;;;35.60;96.70;;;;;;4930252;29;20509;-84
2023/07/14 12:50:26;;;;;;;9.60;3.85;;;35.70;96.70;;;;;;4930554;29;20590;-85
2023/07/14 12:52:56;;;;;;;6.20;3.97;;;35.60;96.70;;;;;;4913571;29;20498;-83
2023/07/14 12:55:31;;;;;;;10.60;4.30;;;35.60;96.70;;;;;;4930035;29;20103;-84
2023/07/14 12:58:05;;;;;;;7.50;4.47;;;35.70;96.70;;;;;;4914293;29;20059;-84
2023/07/14 13:00:33;;;;;;;11.25;4.72;;;35.70;96.70;;;;;;4929828;29;20091;-83
2023/07/14 13:03:08;;;;;;;10.20;4.22;;;35.50;96.70;;;;;;4913364;29;20078;-84
2023/07/14 13:05:38;;;;;;;10.33;4.20;;;35.60;96.70;;;;;;4897820;29;20086;-84
2023/07/14 13:08:16;;;;;;;9.60;4.70;;;35.70;96.70;;;;;;4914752;29;20130;-84
2023/07/14 13:10:44;;;;;;;11.55;5.00;;;35.70;96.70;;;;;;4921666;29;20039;-84
2023/07/14 13:13:16;;;;;;;7.03;4.32;;;35.70;96.70;;;;;;4897545;29;21316;-85
2023/07/14 13:15:45;;;;;;;9.52;4.22;;;36.00;96.70;;;;;;4929907;29;20048;-85
2023/07/14 13:18:25;;;;;;;14.10;4.50;;;36.20;96.70;;;;;;4929940;29;20103;-83
2023/07/14 13:20:58;;;;;;;8.90;4.50;;;36.70;96.70;;;;;;4913403;29;20062;-84
2023/07/14 13:23:30;;;;;;;10.55;4.80;;;36.90;96.70;;;;;;4905800;29;20059;-85
2023/07/14 13:26:17;;;;;;;9.93;4.30;;;36.90;96.70;;;;;;4929609;29;20059;-84
2023/07/14 13:28:56;;;;;;;11.15;4.65;;;37.00;96.70;;;;;;4913732;29;20103;-85
2023/07/14 13:31:28;;;;;;;8.40;4.47;;;37.10;96.70;;;;;;4926835;29;20162;-83
2023/07/14 13:33:59;;;;;;;6.72;4.03;;;37.10;96.70;;;;;;4926874;29;20048;-85
2023/07/14 13:36:33;;;;;;;9.75;4.65;;;37.30;96.70;;;;;;4918906;29;20048;-84
2023/07/14 13:39:06;;;;;;;9.35;4.97;;;37.10;96.70;;;;;;4903468;29;20054;-83
2023/07/14 13:41:44;;;;;;;14.63;4.90;;;37.00;96.70;;;;;;4905814;29;20557;-84
2023/07/14 13:44:36;;;;;;;13.25;5.38;;;36.80;96.70;;;;;;4931316;29;20048;-83
2023/07/14 13:47:14;;;;;;;15.70;6.20;;;36.90;96.70;;;;;;4930418;29;20082;-83
2023/07/14 13:49:46;;;;;;;9.95;5.47;;;37.10;96.70;;;;;;4925481;29;20044;-83
2023/07/14 13:52:17;;;;;;;11.38;5.47;;;37.20;96.70;;;;;;4930111;29;20052;-85
2023/07/14 13:54:52;;;;;;;11.77;5.28;;;36.90;96.70;;;;;;4915881;29;20708;-85
2023/07/14 13:57:21;;;;;;;14.05;5.30;;;37.10;96.70;;;;;;4908062;29;20801;-83
2023/07/14 13:59:50;;;;;;;10.35;5.30;;;37.00;96.70;;;;;;4929260;29;20071;-84
2023/07/14 14:02:25;;;;;;;12.10;5.25;;;36.90;96.70;;;;;;4919826;29;20074;-84
2023/07/14 14:04:54;;;;;;;11.30;5.25;;;36.90;96.70;;;;;;4931477;29;20064;-84
2023/07/14 14:07:22;;;;;;;10.68;5.22;;;36.90;96.70;;;;;;4931352;29;20071;-83
2023/07/14 14:09:52;;;;;;;13.05;5.70;;;36.90;96.70;;;;;;4899502;29;20812;-83
2023/07/14 14:12:21;;;;;;;14.50;6.15;;;37.00;96.70;;;;;;4934069;28;20047;-83
2023/07/14 14:14:50;;;;;;;12.70;5.55;;;37.00;96.70;;;;;;4931984;29;20375;-83
2023/07/14 14:17:28;;;;;;;13.93;5.45;;;36.90;96.70;;;;;;4917723;29;20044;-82
2023/07/14 14:19:56;;;;;;;12.77;5.32;;;37.10;96.70;;;;;;4915431;29;20095;-82
2023/07/14 14:22:27;;;;;;;14.30;5.43;;;37.10;96.70;;;;;;4914426;29;20044;-82
2023/07/14 14:24:56;;;;;;;11.90;5.38;;;36.90;96.70;;;;;;4922824;29;20581;-82
2023/07/14 14:27:25;;;;;;;12.27;5.47;;;37.10;96.70;;;;;;4914414;29;20122;-82
2023/07/14 14:29:53;;;;;;;13.10;5.75;;;37.20;96.70;;;;;;4918944;29;20113;-83
2023/07/14 14:32:24;;;;;;;10.23;5.25;;;37.50;96.70;;;;;;4919526;29;20063;-83
2023/07/14 14:34:57;;;;;;;12.00;5.40;;;37.40;96.70;;;;;;4931218;29;21233;-83
2023/07/14 14:37:25;;;;;;;10.52;5.30;;;37.50;96.70;;;;;;4922355;29;20062;-83
2023/07/14 14:39:53;;;;;;;11.43;5.35;;;37.40;96.70;;;;;;4917634;29;20036;-82
2023/07/14 14:42:23;;;;;;;17.27;6.80;;;37.40;96.70;;;;;;4916850;29;20059;-83
2023/07/14 14:44:51;;;;;;;13.38;6.05;;;37.60;96.70;;;;;;4930696;29;20052;-83
2023/07/14 14:47:20;;;;;;;11.55;5.50;;;37.70;96.70;;;;;;4914461;29;20060;-84
2023/07/14 14:49:48;;;;;;;9.85;5.68;;;37.70;96.70;;;;;;4920126;29;20044;-83
2023/07/14 14:52:17;;;;;;;10.32;5.40;;;37.60;96.70;;;;;;4924745;29;20134;-84
2023/07/14 14:54:46;;;;;;;9.90;5.20;;;37.30;96.70;;;;;;4897208;29;20508;-83
2023/07/14 14:57:15;;;;;;;15.25;5.93;;;36.70;96.70;;;;;;4931144;29;20522;-82
2023/07/14 14:59:45;;;;;;;10.07;5.80;;;36.60;96.70;;;;;;4911017;29;20495;-83
2023/07/14 15:02:16;;;;;;;13.15;5.95;;;37.00;96.70;;;;;;4914530;29;20379;-83
2023/07/14 15:04:45;;;;;;;9.63;5.38;;;37.30;96.70;;;;;;4914336;29;20632;-84
2023/07/14 15:07:14;;;;;;;11.77;6.25;;;37.70;96.70;;;;;;4913636;29;20394;-83
2023/07/14 15:09:43;;;;;;;9.25;5.25;;;37.70;96.70;;;;;;4913199;29;20047;-83
2023/07/14 15:12:14;;;;;;;11.65;5.50;;;37.60;96.70;;;;;;4905840;29;20032;-83
2023/07/14 15:14:49;;;;;;;14.02;5.32;;;37.70;96.70;;;;;;4914979;29;20488;-84
2023/07/14 15:17:22;;;;;;;10.35;5.30;;;37.90;96.70;;;;;;4916558;29;20142;-83
2023/07/14 15:19:51;;;;;;;15.15;5.70;;;38.30;96.70;;;;;;4928022;29;20561;-84
2023/07/14 15:22:22;;;;;;;10.90;5.20;;;38.20;96.70;;;;;;4918923;29;20048;-80
2023/07/14 15:24:51;;;;;;;14.40;5.72;;;38.40;96.70;;;;;;4896120;29;20134;-79
2023/07/14 15:27:28;;;;;;;10.40;5.57;;;38.20;96.70;;;;;;4928403;29;20048;-80
2023/07/14 15:30:02;;;;;;;10.48;5.32;;;38.40;96.70;;;;;;4927997;29;20138;-80
2023/07/14 15:32:31;;;;;;;17.40;5.40;;;38.20;96.70;;;;;;4912897;29;20411;-82
2023/07/14 15:35:00;;;;;;;11.07;5.75;;;38.00;96.70;;;;;;4911245;29;21402;-81
2023/07/14 15:37:28;;;;;;;10.98;5.55;;;38.20;96.70;;;;;;4893787;29;20103;-81
2023/07/14 15:39:56;;;;;;;12.90;5.43;;;38.40;96.70;;;;;;4911140;29;20040;-81
2023/07/14 15:42:25;;;;;;;12.95;5.65;;;38.50;96.70;;;;;;4926983;29;20044;-83
2023/07/14 15:44:53;;;;;;;12.15;5.65;;;38.50;96.70;;;;;;4913254;29;20036;-80
2023/07/14 15:47:22;;;;;;;14.50;6.32;;;38.40;96.70;;;;;;4925843;29;20130;-80
2023/07/14 15:49:51;;;;;;;14.15;5.25;;;38.70;96.70;;;;;;4909866;29;20075;-81
2023/07/14 15:52:20;;;;;;;11.48;5.63;;;38.80;96.70;;;;;;4927408;29;20043;-81
2023/07/14 15:54:48;;;;;;;13.95;5.53;;;39.10;96.70;;;;;;4909835;29;20059;-79
2023/07/14 15:57:17;;;;;;;13.95;6.05;;;39.40;96.70;;;;;;4920785;29;20063;-80
2023/07/14 15:59:45;;;;;;;13.20;5.97;;;39.50;96.70;;;;;;4912367;29;20040;-80
2023/07/14 16:02:15;;;;;;;12.80;5.30;;;39.50;96.70;;;;;;4921732;29;20059;-82
2023/07/14 16:04:45;;;;;;;10.93;5.32;;;39.60;96.70;;;;;;4911812;29;20138;-79
2023/07/14 16:07:14;;;;;;;13.95;5.97;;;39.40;96.70;;;;;;4914119;29;20060;-79
2023/07/14 16:09:43;;;;;;;13.05;5.88;;;39.50;96.70;;;;;;4925931;29;20051;-80
2023/07/14 16:12:17;;;;;;;9.70;5.10;;;39.30;96.70;;;;;;4925973;29;20494;-80
2023/07/14 16:14:46;;;;;;;10.93;5.40;;;39.20;96.70;;;;;;4909065;29;20051;-81
2023/07/14 16:17:14;;;;;;;7.90;5.13;;;39.40;96.70;;;;;;4909628;29;20056;-81
2023/07/14 16:19:45;;;;;;;14.63;5.80;;;39.60;96.70;;;;;;4923036;29;20143;-81
2023/07/14 16:22:20;;;;;;;14.40;5.85;;;39.20;96.70;;;;;;4911542;29;20055;-80
2023/07/14 16:24:50;;;;;;;13.70;5.97;;;39.20;96.70;;;;;;4911189;29;20425;-80
2023/07/14 16:27:23;;;;;;;13.75;6.00;;;39.50;96.70;;;;;;4927008;29;20123;-80
2023/07/14 16:29:55;;;;;;;10.80;5.20;;;39.60;96.70;;;;;;4915485;29;20066;-81
2023/07/14 16:32:24;;;;;;;12.35;5.70;;;39.90;96.70;;;;;;4911584;29;20046;-82
2023/07/14 16:34:53;;;;;;;9.10;5.55;;;40.10;96.70;;;;;;4910226;29;20585;-81
2023/07/14 16:37:23;;;;;;;12.13;5.60;;;40.40;96.70;;;;;;4896721;29;20600;-81
2023/07/14 16:39:51;;;;;;;15.20;5.85;;;40.50;96.70;;;;;;4926484;29;20545;-80
2023/07/14 16:42:20;;;;;;;10.95;5.40;;;40.50;96.70;;;;;;4906992;29;20094;-80
2023/07/14 16:44:48;;;;;;;12.65;5.30;;;40.80;96.70;;;;;;4896362;29;20052;-81
2023/07/14 16:47:20;;;;;;;13.80;5.40;;;40.90;96.70;;;;;;4925618;29;20051;-80
2023/07/14 16:49:49;;;;;;;9.63;5.30;;;41.20;96.70;;;;;;4913837;29;20051;-80
2023/07/14 16:52:23;;;;;;;10.60;5.57;;;41.10;96.70;;;;;;4912537;29;20045;-80
2023/07/14 16:54:53;;;;;;;10.85;5.85;;;40.90;96.70;;;;;;4925135;29;20134;-79
2023/07/14 16:57:34;;;;;;;11.73;5.53;;;40.80;96.70;;;;;;4911546;29;20067;-80
2023/07/14 17:00:04;;;;;;;11.73;5.72;;;40.80;96.70;;;;;;4908388;29;20409;-79
2023/07/14 17:02:38;;;;;;;8.70;4.90;;;41.10;96.70;;;;;;4920645;29;20048;-81
2023/07/14 17:05:13;;;;;;;8.73;5.05;;;40.80;96.70;;;;;;4925017;29;20119;-81
2023/07/14 17:07:43;;;;;;;10.93;5.00;;;41.30;96.70;;;;;;4909723;29;20129;-79
2023/07/14 17:10:12;;;;;;;14.13;5.40;;;41.40;96.70;;;;;;4925420;29;20044;-80
2023/07/14 17:12:40;;;;;;;11.73;5.40;;;41.20;96.70;;;;;;4924742;29;20044;-80
2023/07/14 17:15:11;;;;;;;14.25;5.35;;;40.50;96.70;;;;;;4914013;29;20126;-78
2023/07/14 17:17:39;;;;;;;10.05;5.50;;;40.40;96.70;;;;;;4921670;29;20048;-79
2023/07/14 17:20:12;;;;;;;11.18;5.15;;;40.60;96.70;;;;;;4929670;29;20122;-80
2023/07/14 17:22:43;;;;;;;11.23;5.28;;;40.50;96.70;;;;;;4922296;29;20055;-82
2023/07/14 17:25:20;;;;;;;10.65;5.35;;;40.40;96.70;;;;;;4918152;29;20052;-83
2023/07/14 17:27:48;;;;;;;11.90;5.32;;;40.60;96.70;;;;;;4907489;29;20071;-82
2023/07/14 17:30:30;;;;;;;13.20;5.05;;;40.80;96.70;;;;;;4899118;29;20115;-80
2023/07/14 17:32:58;;;;;;;13.18;5.53;;;40.70;96.70;;;;;;4907032;29;20405;-80
2023/07/14 17:35:28;;;;;;;13.48;5.15;;;40.50;96.70;;;;;;4915636;29;20067;-79